Time;durP1;ratioP1;P1;durP2;ratioP2;P2;SDS_P1;SDS_P2;PMS_P1;PMS_P2;Temp;Humidity;BMP_temperature;BMP_pressure;BME280_temperature;BME280_humidity;BME280_pressure;Samples;Min_cycle;Max_cycle;Signal;HPM_P1;HPM_P2
2022/02/13 00:00:07;;;;;;;2.70;2.50;;;17.10;48.80;;;;;;5073495;28;20254;-60
2022/02/13 00:02:33;;;;;;;2.85;2.35;;;17.10;48.90;;;;;;5073202;28;20183;-60
2022/02/13 00:04:58;;;;;;;4.72;2.58;;;17.10;48.90;;;;;;5073553;28;20221;-59
2022/02/13 00:07:24;;;;;;;3.95;2.63;;;17.10;48.80;;;;;;5073602;28;20193;-61
2022/02/13 00:09:49;;;;;;;3.83;2.45;;;17.00;48.80;;;;;;5072946;28;20213;-61
2022/02/13 00:12:15;;;;;;;3.17;2.42;;;17.00;48.80;;;;;;5073076;28;20166;-62
2022/02/13 00:14:41;;;;;;;3.70;2.58;;;17.00;48.80;;;;;;5073305;28;20545;-63
2022/02/13 00:17:07;;;;;;;3.00;2.53;;;17.00;48.80;;;;;;5072590;28;20193;-62
2022/02/13 00:19:32;;;;;;;2.88;2.60;;;17.00;48.80;;;;;;5073253;28;20633;-62
2022/02/13 00:21:58;;;;;;;3.38;2.15;;;16.90;48.80;;;;;;5072518;28;20244;-62
2022/02/13 00:24:23;;;;;;;3.28;2.70;;;16.90;48.80;;;;;;5073308;28;20206;-61
2022/02/13 00:26:49;;;;;;;2.63;2.42;;;16.90;48.80;;;;;;5073189;28;20177;-60
2022/02/13 00:29:14;;;;;;;3.08;2.20;;;16.90;48.90;;;;;;5072297;28;20173;-59
2022/02/13 00:31:40;;;;;;;4.00;2.38;;;16.90;48.90;;;;;;5072988;28;20578;-60
2022/02/13 00:34:05;;;;;;;2.97;2.65;;;16.90;48.80;;;;;;5072783;28;20167;-60
2022/02/13 00:36:31;;;;;;;2.80;2.47;;;16.90;48.90;;;;;;5072226;28;20175;-60
2022/02/13 00:38:56;;;;;;;2.33;2.13;;;16.90;48.90;;;;;;5072590;28;20641;-61
2022/02/13 00:41:22;;;;;;;2.78;2.45;;;16.80;48.80;;;;;;5072854;28;20182;-60
2022/02/13 00:43:47;;;;;;;3.97;2.58;;;16.90;48.80;;;;;;5071869;28;20202;-61
2022/02/13 00:46:13;;;;;;;3.65;2.75;;;16.80;48.80;;;;;;5072192;28;20185;-61
2022/02/13 00:48:38;;;;;;;3.60;2.88;;;16.80;48.90;;;;;;5072720;28;20170;-60
2022/02/13 00:51:04;;;;;;;2.63;2.42;;;16.80;48.80;;;;;;5071519;28;20175;-60
2022/02/13 00:53:29;;;;;;;3.05;2.40;;;16.80;48.80;;;;;;5072263;28;20660;-60
2022/02/13 00:55:55;;;;;;;3.13;2.25;;;16.80;48.80;;;;;;5072255;28;20243;-61
2022/02/13 00:58:20;;;;;;;3.58;2.85;;;16.80;48.80;;;;;;5071689;28;20175;-60
2022/02/13 01:00:46;;;;;;;2.75;2.42;;;16.70;48.80;;;;;;5072672;28;20177;-60
2022/02/13 01:03:11;;;;;;;2.40;2.20;;;16.70;48.80;;;;;;5072095;28;20624;-59
2022/02/13 01:05:37;;;;;;;4.78;2.35;;;16.70;48.80;;;;;;5071395;28;20319;-60
2022/02/13 01:08:03;;;;;;;3.75;2.53;;;16.70;48.80;;;;;;5072164;28;20308;-60
2022/02/13 01:10:31;;;;;;;3.63;3.10;;;16.70;48.80;;;;;;5072291;28;20174;-61
2022/02/13 01:12:56;;;;;;;3.63;2.60;;;16.70;48.80;;;;;;5071329;28;20317;-62
2022/02/13 01:15:22;;;;;;;3.22;2.92;;;16.70;48.80;;;;;;5072442;28;20688;-62
2022/02/13 01:17:48;;;;;;;2.97;2.67;;;16.60;48.80;;;;;;5071997;28;20236;-62
2022/02/13 01:20:13;;;;;;;2.88;2.60;;;16.60;48.80;;;;;;5070934;28;20617;-61
2022/02/13 01:22:39;;;;;;;3.90;3.13;;;16.60;48.80;;;;;;5071643;28;20174;-61
2022/02/13 01:25:05;;;;;;;4.20;2.72;;;16.60;48.80;;;;;;5071461;28;20699;-60
2022/02/13 01:27:31;;;;;;;2.60;2.35;;;16.60;48.80;;;;;;5071564;28;20247;-59
2022/02/13 01:29:56;;;;;;;3.13;2.50;;;16.60;48.80;;;;;;5071769;28;20673;-60
2022/02/13 01:32:22;;;;;;;2.58;2.38;;;16.60;48.80;;;;;;5071196;28;20197;-60
2022/02/13 01:34:47;;;;;;;4.13;2.58;;;16.60;48.80;;;;;;5071945;28;20178;-59
2022/02/13 01:37:13;;;;;;;3.85;2.50;;;16.50;48.80;;;;;;5071620;28;20185;-60
2022/02/13 01:39:38;;;;;;;3.33;2.30;;;16.60;48.80;;;;;;5071411;28;20175;-60
2022/02/13 01:42:04;;;;;;;2.50;2.30;;;16.60;48.80;;;;;;5071901;28;20166;-60
2022/02/13 01:44:32;;;;;;;3.42;2.50;;;16.50;48.80;;;;;;5071665;28;20305;-60
2022/02/13 01:46:57;;;;;;;3.08;2.47;;;16.60;48.80;;;;;;5070934;28;20579;-60
2022/02/13 01:49:23;;;;;;;3.22;2.92;;;16.50;48.80;;;;;;5071648;28;20700;-59
2022/02/13 01:51:48;;;;;;;3.15;2.65;;;16.50;48.80;;;;;;5071874;28;20205;-60
2022/02/13 01:54:14;;;;;;;2.70;2.50;;;16.50;48.80;;;;;;5070756;28;20279;-60
2022/02/13 01:56:39;;;;;;;4.05;2.53;;;16.50;48.70;;;;;;5071538;28;20194;-61
2022/02/13 01:59:05;;;;;;;2.97;2.78;;;16.50;48.80;;;;;;5071283;28;20205;-60
2022/02/13 02:01:31;;;;;;;3.78;2.55;;;16.40;48.70;;;;;;5070969;28;20533;-60
2022/02/13 02:03:56;;;;;;;2.60;2.40;;;16.40;48.70;;;;;;5071033;28;20673;-60
2022/02/13 02:06:22;;;;;;;3.55;3.15;;;16.50;48.70;;;;;;5071639;28;20711;-60
2022/02/13 02:08:47;;;;;;;2.88;2.58;;;16.40;48.70;;;;;;5071130;28;20280;-60
2022/02/13 02:11:13;;;;;;;3.42;3.13;;;16.40;49.30;;;;;;5071249;28;20174;-61
2022/02/13 02:13:38;;;;;;;2.90;2.60;;;16.40;48.70;;;;;;5071709;28;20173;-63
2022/02/13 02:16:04;;;;;;;3.08;2.75;;;16.40;48.70;;;;;;5070329;28;20170;-62
2022/02/13 02:18:30;;;;;;;3.35;2.85;;;16.40;48.70;;;;;;5071403;28;20189;-62
2022/02/13 02:21:02;;;;;;;2.83;2.40;;;16.40;48.70;;;;;;5071033;28;20183;-61
2022/02/13 02:23:28;;;;;;;2.95;2.50;;;16.40;48.70;;;;;;5070646;28;20595;-60
2022/02/13 02:25:53;;;;;;;4.45;2.83;;;16.30;48.70;;;;;;5071110;28;20261;-60
2022/02/13 02:28:19;;;;;;;4.55;2.90;;;16.30;48.70;;;;;;5071259;28;20652;-60
2022/02/13 02:30:44;;;;;;;3.28;2.60;;;16.30;48.70;;;;;;5070585;28;20175;-60
2022/02/13 02:33:11;;;;;;;3.03;2.70;;;16.30;48.60;;;;;;5072382;28;20224;-60
2022/02/13 02:35:37;;;;;;;3.50;2.78;;;16.30;48.70;;;;;;5074791;28;20202;-60
2022/02/13 02:38:03;;;;;;;4.28;2.38;;;16.30;48.80;;;;;;5074993;28;20205;-61
2022/02/13 02:40:28;;;;;;;3.47;2.78;;;16.30;48.70;;;;;;5075240;28;20178;-60
2022/02/13 02:42:54;;;;;;;3.58;2.97;;;16.20;48.70;;;;;;5074147;28;20175;-61
2022/02/13 02:45:19;;;;;;;3.10;2.67;;;16.30;48.70;;;;;;5074933;28;20206;-61
2022/02/13 02:47:45;;;;;;;3.53;2.72;;;16.30;48.60;;;;;;5074876;28;20598;-61
2022/02/13 02:50:11;;;;;;;3.30;3.00;;;16.20;48.60;;;;;;5074203;28;20175;-60
2022/02/13 02:52:37;;;;;;;3.13;2.67;;;16.30;48.70;;;;;;5075180;28;20167;-61
2022/02/13 02:55:03;;;;;;;4.07;3.03;;;16.20;48.60;;;;;;5074432;28;20225;-60
2022/02/13 02:57:29;;;;;;;3.60;2.90;;;16.20;48.60;;;;;;5074285;28;20258;-60
2022/02/13 02:59:54;;;;;;;2.83;2.58;;;16.20;48.50;;;;;;5074384;28;20202;-60
2022/02/13 03:02:20;;;;;;;3.63;2.78;;;16.20;48.60;;;;;;5074707;28;20166;-60
2022/02/13 03:04:45;;;;;;;3.53;3.08;;;16.20;48.60;;;;;;5074071;28;20206;-60
2022/02/13 03:07:11;;;;;;;3.53;2.83;;;16.20;48.50;;;;;;5074436;28;20167;-60
2022/02/13 03:09:36;;;;;;;2.55;2.35;;;16.20;48.50;;;;;;5074650;28;20174;-61
2022/02/13 03:12:02;;;;;;;3.65;2.78;;;16.20;48.60;;;;;;5073624;28;20175;-62
2022/02/13 03:14:28;;;;;;;3.00;2.70;;;16.20;48.60;;;;;;5074522;28;20208;-62
2022/02/13 03:16:53;;;;;;;4.03;2.85;;;16.10;48.50;;;;;;5074165;28;20621;-62
2022/02/13 03:19:19;;;;;;;3.67;2.50;;;16.10;48.60;;;;;;5073859;28;20614;-62
2022/02/13 03:21:44;;;;;;;3.22;2.67;;;16.10;48.60;;;;;;5074613;28;20196;-61
2022/02/13 03:24:10;;;;;;;2.72;2.20;;;16.10;48.50;;;;;;5074217;28;20241;-60
2022/02/13 03:26:35;;;;;;;3.70;2.70;;;16.10;48.50;;;;;;5073586;28;20278;-60
2022/02/13 03:29:01;;;;;;;2.90;2.60;;;16.10;48.50;;;;;;5074020;28;20174;-59
2022/02/13 03:31:27;;;;;;;3.35;2.85;;;16.10;48.60;;;;;;5074157;28;20182;-60
2022/02/13 03:33:52;;;;;;;3.22;2.70;;;16.10;48.50;;;;;;5073352;28;20586;-60
2022/02/13 03:36:19;;;;;;;2.70;2.50;;;16.00;48.50;;;;;;5074041;28;20162;-60
2022/02/13 03:38:45;;;;;;;2.67;2.47;;;16.00;48.50;;;;;;5074059;28;20175;-61
2022/02/13 03:41:10;;;;;;;2.75;2.55;;;16.00;48.50;;;;;;5073154;28;20631;-61
2022/02/13 03:43:36;;;;;;;3.33;2.70;;;16.00;48.50;;;;;;5073874;28;20198;-61
2022/02/13 03:46:01;;;;;;;3.15;2.53;;;16.00;48.40;;;;;;5072150;28;20637;-61
2022/02/13 03:48:27;;;;;;;3.15;2.85;;;16.00;48.50;;;;;;5073803;28;20539;-60
2022/02/13 03:50:52;;;;;;;3.05;2.75;;;16.00;48.50;;;;;;5073630;28;20526;-61
2022/02/13 03:53:18;;;;;;;3.30;2.85;;;16.00;48.60;;;;;;5072970;28;20645;-60
2022/02/13 03:55:43;;;;;;;3.03;2.40;;;16.00;49.20;;;;;;5073907;28;20629;-61
2022/02/13 03:58:09;;;;;;;3.03;2.30;;;16.00;48.50;;;;;;5073418;28;20217;-61
2022/02/13 04:00:34;;;;;;;4.63;3.00;;;16.00;48.50;;;;;;5072892;28;20183;-61
2022/02/13 04:03:00;;;;;;;2.95;2.42;;;16.00;48.50;;;;;;5073223;28;20166;-60
2022/02/13 04:05:25;;;;;;;4.65;3.13;;;15.90;48.50;;;;;;5073622;28;20202;-60
2022/02/13 04:07:51;;;;;;;2.83;2.63;;;15.90;48.50;;;;;;5072724;28;20179;-60
2022/02/13 04:10:16;;;;;;;3.58;2.70;;;15.90;48.50;;;;;;5073252;28;20174;-61
2022/02/13 04:12:42;;;;;;;3.22;2.92;;;15.90;48.50;;;;;;5073731;28;20170;-62
2022/02/13 04:15:10;;;;;;;2.90;2.63;;;15.90;48.50;;;;;;5072418;28;20258;-62
2022/02/13 04:17:35;;;;;;;3.13;2.50;;;15.90;48.50;;;;;;5073369;28;20244;-62
2022/02/13 04:20:01;;;;;;;3.50;2.45;;;15.80;49.10;;;;;;5072894;28;20175;-62
2022/02/13 04:22:26;;;;;;;2.70;2.50;;;15.90;48.60;;;;;;5072618;28;20178;-60
2022/02/13 04:24:52;;;;;;;3.13;2.70;;;15.80;48.50;;;;;;5073084;28;20202;-61
2022/02/13 04:27:17;;;;;;;2.53;2.13;;;15.90;48.60;;;;;;5072901;28;20189;-60
2022/02/13 04:29:43;;;;;;;3.45;2.72;;;15.80;48.60;;;;;;5072400;28;20178;-60
2022/02/13 04:32:08;;;;;;;2.80;2.58;;;15.90;48.50;;;;;;5072878;28;20182;-60
2022/02/13 04:34:34;;;;;;;3.00;2.58;;;15.80;48.50;;;;;;5073628;28;20190;-61
2022/02/13 04:36:59;;;;;;;2.60;2.40;;;15.80;48.50;;;;;;5071954;28;20179;-61
2022/02/13 04:39:25;;;;;;;3.00;2.80;;;15.80;48.50;;;;;;5073025;28;20548;-61
2022/02/13 04:41:50;;;;;;;2.88;2.47;;;15.80;48.50;;;;;;5072840;28;20679;-61
2022/02/13 04:44:16;;;;;;;3.17;2.70;;;15.80;48.50;;;;;;5071629;28;20260;-61
2022/02/13 04:46:41;;;;;;;2.80;2.53;;;15.80;48.60;;;;;;5072591;28;20194;-61
2022/02/13 04:49:07;;;;;;;4.00;2.92;;;15.80;48.50;;;;;;5072540;28;20249;-61
2022/02/13 04:51:32;;;;;;;3.35;2.45;;;15.80;48.60;;;;;;5071851;28;20174;-61
2022/02/13 04:53:58;;;;;;;3.08;2.78;;;15.80;49.20;;;;;;5072126;28;20684;-61
2022/02/13 04:56:23;;;;;;;3.35;2.90;;;15.70;48.60;;;;;;5070929;28;20189;-61
2022/02/13 04:58:49;;;;;;;2.95;2.40;;;15.70;48.60;;;;;;5072726;28;20167;-61
2022/02/13 05:01:14;;;;;;;3.55;2.95;;;15.70;48.50;;;;;;5072357;28;20248;-60
2022/02/13 05:03:40;;;;;;;2.70;2.50;;;15.70;48.60;;;;;;5071652;28;20310;-60
2022/02/13 05:06:06;;;;;;;2.55;2.20;;;15.70;48.60;;;;;;5072094;28;20266;-60
2022/02/13 05:08:31;;;;;;;4.00;2.85;;;15.70;48.60;;;;;;5072591;28;20591;-60
2022/02/13 05:10:57;;;;;;;2.97;2.40;;;15.70;48.60;;;;;;5071466;28;20174;-61
2022/02/13 05:13:22;;;;;;;2.88;2.20;;;15.70;48.60;;;;;;5072252;28;20178;-61
2022/02/13 05:15:48;;;;;;;2.72;2.50;;;15.60;48.50;;;;;;5072274;28;20247;-62
2022/02/13 05:18:13;;;;;;;2.78;2.47;;;15.70;48.60;;;;;;5071398;28;20170;-62
2022/02/13 05:20:39;;;;;;;2.33;2.13;;;15.60;48.50;;;;;;5072272;28;20194;-62
2022/02/13 05:23:04;;;;;;;2.22;2.03;;;15.70;48.60;;;;;;5071828;28;20198;-61
2022/02/13 05:25:30;;;;;;;2.13;2.03;;;15.70;48.60;;;;;;5071229;28;20727;-60
2022/02/13 05:27:55;;;;;;;3.97;2.50;;;15.60;48.50;;;;;;5071847;28;20225;-60
2022/02/13 05:30:21;;;;;;;2.38;2.17;;;15.60;48.50;;;;;;5071867;28;20170;-60
2022/02/13 05:32:46;;;;;;;2.40;2.20;;;15.60;48.60;;;;;;5071599;28;20174;-59
2022/02/13 05:35:12;;;;;;;2.97;2.63;;;15.60;48.50;;;;;;5072141;28;21159;-60
2022/02/13 05:37:41;;;;;;;2.47;2.25;;;15.60;48.40;;;;;;5071928;28;20198;-61
2022/02/13 05:40:07;;;;;;;3.20;2.60;;;15.60;48.50;;;;;;5070931;28;20651;-61
2022/02/13 05:42:33;;;;;;;2.83;2.63;;;15.60;48.60;;;;;;5071931;28;20170;-61
2022/02/13 05:44:58;;;;;;;2.35;2.15;;;15.60;48.60;;;;;;5071538;28;20699;-61
2022/02/13 05:47:24;;;;;;;2.88;2.58;;;15.60;48.60;;;;;;5071073;28;20637;-61
2022/02/13 05:49:49;;;;;;;2.65;2.40;;;15.50;48.50;;;;;;5072047;28;20186;-60
2022/02/13 05:52:15;;;;;;;2.50;2.30;;;15.50;48.60;;;;;;5071681;28;20170;-61
2022/02/13 05:54:40;;;;;;;2.75;2.53;;;15.50;48.50;;;;;;5070951;28;20730;-61
2022/02/13 05:57:06;;;;;;;2.40;2.20;;;15.50;48.60;;;;;;5071535;28;20183;-62
2022/02/13 05:59:32;;;;;;;2.58;2.38;;;15.50;48.50;;;;;;5071431;28;20177;-61
2022/02/13 06:01:57;;;;;;;3.33;2.63;;;15.50;48.60;;;;;;5071379;28;20201;-60
2022/02/13 06:04:23;;;;;;;2.78;2.20;;;15.50;48.70;;;;;;5071664;28;20741;-61
2022/02/13 06:06:55;;;;;;;2.47;2.28;;;15.50;49.50;;;;;;5071020;28;20175;-60
2022/02/13 06:09:21;;;;;;;2.30;2.10;;;15.50;48.70;;;;;;5078052;28;20392;-61
2022/02/13 06:11:46;;;;;;;2.40;2.20;;;15.60;48.60;;;;;;5078551;28;20174;-62
2022/02/13 06:14:12;;;;;;;2.60;2.40;;;15.60;49.20;;;;;;5077336;28;20186;-62
2022/02/13 06:16:38;;;;;;;2.50;2.28;;;15.70;48.50;;;;;;5078725;28;20194;-62
2022/02/13 06:19:03;;;;;;;2.50;2.05;;;15.70;48.40;;;;;;5078129;28;20262;-62
2022/02/13 06:21:29;;;;;;;2.88;1.98;;;15.70;48.40;;;;;;5077786;28;20176;-61
2022/02/13 06:23:54;;;;;;;2.03;1.85;;;15.70;48.40;;;;;;5077965;28;20513;-61
2022/02/13 06:26:20;;;;;;;2.83;2.50;;;15.70;48.40;;;;;;5078288;28;20484;-58
2022/02/13 06:28:46;;;;;;;2.70;2.50;;;15.70;48.40;;;;;;5077491;28;20258;-60
2022/02/13 06:31:12;;;;;;;3.65;2.22;;;15.70;48.50;;;;;;5078118;28;20252;-59
2022/02/13 06:33:37;;;;;;;3.10;2.40;;;15.60;48.40;;;;;;5078398;28;20205;-61
2022/02/13 06:36:03;;;;;;;2.65;2.38;;;15.60;48.50;;;;;;5077297;28;20190;-61
2022/02/13 06:38:28;;;;;;;2.67;2.38;;;15.60;48.50;;;;;;5078127;28;20178;-60
2022/02/13 06:40:54;;;;;;;2.00;1.90;;;15.70;48.50;;;;;;5077959;28;20576;-60
2022/02/13 06:43:19;;;;;;;2.45;2.25;;;15.70;49.20;;;;;;5077388;28;20640;-60
2022/02/13 06:45:45;;;;;;;2.63;2.42;;;15.70;48.50;;;;;;5078028;28;20212;-60
2022/02/13 06:48:10;;;;;;;2.40;2.20;;;15.70;48.50;;;;;;5077886;28;20277;-60
2022/02/13 06:50:36;;;;;;;2.88;2.55;;;15.70;48.40;;;;;;5077504;28;20190;-60
2022/02/13 06:53:04;;;;;;;2.20;2.00;;;15.80;48.40;;;;;;5077792;28;20578;-60
2022/02/13 06:55:30;;;;;;;2.17;2.08;;;15.70;48.30;;;;;;5077920;28;20716;-61
2022/02/13 06:57:56;;;;;;;3.60;2.53;;;15.70;48.40;;;;;;5077092;28;20205;-61
2022/02/13 07:00:21;;;;;;;3.30;2.60;;;15.70;48.40;;;;;;5078410;28;20174;-61
2022/02/13 07:02:47;;;;;;;2.58;2.38;;;15.70;48.50;;;;;;5078066;28;20243;-61
2022/02/13 07:05:13;;;;;;;3.60;2.40;;;15.70;48.50;;;;;;5076879;28;20218;-60
2022/02/13 07:07:38;;;;;;;2.20;2.00;;;15.70;48.60;;;;;;5077991;28;20174;-61
2022/02/13 07:10:05;;;;;;;2.10;2.00;;;15.70;48.70;;;;;;5076754;28;20250;-61
2022/02/13 07:12:30;;;;;;;2.28;2.08;;;15.80;49.00;;;;;;5077946;28;20183;-62
2022/02/13 07:14:56;;;;;;;2.00;1.90;;;15.90;49.00;;;;;;5077419;28;20178;-61
2022/02/13 07:17:21;;;;;;;2.58;2.05;;;16.00;48.80;;;;;;5077189;28;20175;-62
2022/02/13 07:19:47;;;;;;;2.08;1.90;;;16.20;48.80;;;;;;5075055;28;20170;-62
2022/02/13 07:22:12;;;;;;;2.50;2.10;;;16.40;48.50;;;;;;5074246;28;20190;-61
2022/02/13 07:24:38;;;;;;;2.33;2.13;;;16.50;48.30;;;;;;5073827;28;20201;-60
2022/02/13 07:27:07;;;;;;;2.28;1.80;;;16.70;48.00;;;;;;5074102;28;20185;-62
2022/02/13 07:29:34;;;;;;;1.95;1.83;;;16.80;47.80;;;;;;5074494;28;20619;-60
2022/02/13 07:31:59;;;;;;;2.13;1.90;;;16.90;47.50;;;;;;5073475;28;20217;-60
2022/02/13 07:34:24;;;;;;;2.08;1.67;;;17.00;47.50;;;;;;5074494;28;20198;-60
2022/02/13 07:36:54;;;;;;;2.75;2.00;;;17.10;47.50;;;;;;5074166;28;20182;-61
2022/02/13 07:39:20;;;;;;;2.30;1.80;;;17.30;47.30;;;;;;5073519;28;20189;-60
2022/02/13 07:41:46;;;;;;;1.85;1.50;;;17.40;47.00;;;;;;5074280;28;20178;-61
2022/02/13 07:44:11;;;;;;;1.90;1.80;;;17.60;46.70;;;;;;5073607;28;20279;-60
2022/02/13 07:46:37;;;;;;;2.50;2.05;;;17.80;46.40;;;;;;5073299;28;20201;-61
2022/02/13 07:49:05;;;;;;;2.95;1.60;;;17.90;46.20;;;;;;5073743;28;20726;-60
2022/02/13 07:51:32;;;;;;;2.40;2.20;;;17.90;46.30;;;;;;5073866;28;20240;-60
2022/02/13 07:53:58;;;;;;;2.03;1.90;;;17.90;46.40;;;;;;5072579;28;20230;-60
2022/02/13 07:56:23;;;;;;;2.40;1.77;;;17.90;46.50;;;;;;5074071;28;20278;-61
2022/02/13 07:58:49;;;;;;;1.70;1.60;;;17.90;46.40;;;;;;5073952;28;20258;-60
2022/02/13 08:01:17;;;;;;;2.22;1.77;;;18.00;46.50;;;;;;5072601;28;20620;-60
2022/02/13 08:03:43;;;;;;;1.48;1.38;;;18.00;46.40;;;;;;5073701;28;20183;-60
2022/02/13 08:06:09;;;;;;;1.98;1.73;;;18.00;46.50;;;;;;5072985;28;20173;-60
2022/02/13 08:08:36;;;;;;;1.85;1.75;;;18.10;46.40;;;;;;5073435;28;20315;-61
2022/02/13 08:11:03;;;;;;;1.77;1.67;;;18.20;46.40;;;;;;5073250;28;20569;-61
2022/02/13 08:13:29;;;;;;;2.13;1.83;;;18.10;46.40;;;;;;5072908;28;20208;-62
2022/02/13 08:15:54;;;;;;;2.40;1.80;;;18.20;46.40;;;;;;5073364;28;20182;-62
2022/02/13 08:18:20;;;;;;;1.80;1.70;;;18.20;46.40;;;;;;5073382;28;20178;-62
2022/02/13 08:20:46;;;;;;;1.90;1.75;;;18.20;46.40;;;;;;5072717;28;20190;-61
2022/02/13 08:23:12;;;;;;;1.70;1.60;;;18.10;46.40;;;;;;5073075;28;20209;-61
2022/02/13 08:25:39;;;;;;;1.60;1.50;;;18.10;46.60;;;;;;5073539;28;20700;-60
2022/02/13 08:28:05;;;;;;;1.77;1.67;;;18.10;46.70;;;;;;5072415;28;20174;-60
2022/02/13 08:30:30;;;;;;;1.83;1.73;;;18.10;46.70;;;;;;5073143;28;20601;-60
2022/02/13 08:32:58;;;;;;;1.65;1.55;;;18.10;47.30;;;;;;5073035;28;20642;-60
2022/02/13 08:35:26;;;;;;;1.60;1.50;;;18.20;46.60;;;;;;5072525;28;20185;-60
2022/02/13 08:37:52;;;;;;;1.90;1.80;;;18.20;46.50;;;;;;5073041;28;20175;-67
2022/02/13 08:40:17;;;;;;;2.72;1.75;;;18.20;46.50;;;;;;5073280;28;20257;-66
2022/02/13 08:42:43;;;;;;;2.33;1.83;;;18.40;46.60;;;;;;5072480;28;20179;-66
2022/02/13 08:45:09;;;;;;;2.75;1.70;;;18.40;46.60;;;;;;5072893;28;20268;-65
2022/02/13 08:47:34;;;;;;;2.63;2.35;;;18.50;46.70;;;;;;5073132;28;20182;-67
2022/02/13 08:50:00;;;;;;;2.65;1.80;;;18.50;46.80;;;;;;5071943;28;20672;-65
2022/02/13 08:52:25;;;;;;;3.72;2.28;;;18.50;47.20;;;;;;5072748;28;20182;-64
2022/02/13 08:54:51;;;;;;;3.15;1.60;;;18.60;47.40;;;;;;5072582;28;20218;-64
2022/02/13 08:57:16;;;;;;;3.85;2.03;;;18.60;47.20;;;;;;5071897;28;20197;-64
2022/02/13 08:59:42;;;;;;;2.20;1.60;;;18.60;47.10;;;;;;5072794;28;20175;-64
2022/02/13 09:02:07;;;;;;;2.45;2.03;;;18.60;47.10;;;;;;5072545;28;20546;-65
2022/02/13 09:04:34;;;;;;;2.95;1.75;;;18.60;47.20;;;;;;5071909;28;20198;-65
2022/02/13 09:07:00;;;;;;;4.05;2.00;;;18.60;47.30;;;;;;5072136;28;20178;-65
2022/02/13 09:09:29;;;;;;;2.95;2.20;;;18.70;47.30;;;;;;5072107;28;20272;-66
2022/02/13 09:11:55;;;;;;;2.67;2.20;;;18.70;47.40;;;;;;5072409;28;20306;-65
2022/02/13 09:14:20;;;;;;;2.80;1.70;;;18.70;47.30;;;;;;5072561;28;20257;-64
2022/02/13 09:16:46;;;;;;;3.38;1.70;;;18.70;47.30;;;;;;5071661;28;20237;-64
2022/02/13 09:19:11;;;;;;;2.33;1.50;;;18.70;47.40;;;;;;5072090;28;20178;-64
2022/02/13 09:21:37;;;;;;;2.30;1.50;;;18.70;47.30;;;;;;5054492;28;20171;-64
2022/02/13 09:24:03;;;;;;;3.22;1.65;;;18.70;47.40;;;;;;5071186;28;20237;-65
2022/02/13 09:26:29;;;;;;;2.33;1.50;;;18.70;47.40;;;;;;5072311;28;20178;-67
2022/02/13 09:28:54;;;;;;;2.35;1.85;;;18.70;47.30;;;;;;5072227;28;20171;-68
2022/02/13 09:31:20;;;;;;;2.47;1.70;;;18.70;47.40;;;;;;5063344;28;20201;-70
2022/02/13 09:33:45;;;;;;;3.03;1.63;;;18.70;47.50;;;;;;5060822;28;20252;-69
2022/02/13 09:36:12;;;;;;;1.75;1.65;;;18.60;47.60;;;;;;5064986;28;20692;-68
2022/02/13 09:38:38;;;;;;;3.05;1.58;;;18.60;47.60;;;;;;5061752;28;20187;-69
2022/02/13 09:41:05;;;;;;;1.60;1.42;;;18.50;47.70;;;;;;5070138;28;20542;-68
2022/02/13 09:43:30;;;;;;;1.83;1.65;;;18.50;47.80;;;;;;5071497;28;20192;-68
2022/02/13 09:45:57;;;;;;;1.95;1.75;;;18.50;48.00;;;;;;5070987;28;20175;-65
2022/02/13 09:48:25;;;;;;;3.38;1.90;;;18.50;48.00;;;;;;5063544;28;20598;-66
2022/02/13 09:50:50;;;;;;;2.83;1.50;;;18.50;48.10;;;;;;5051763;28;20262;-66
2022/02/13 09:53:17;;;;;;;4.20;1.80;;;18.60;48.20;;;;;;5050813;28;20254;-67
2022/02/13 09:55:43;;;;;;;4.97;1.70;;;18.60;48.20;;;;;;5051907;28;20655;-66
2022/02/13 09:58:08;;;;;;;2.33;1.50;;;18.60;48.10;;;;;;5051467;28;20269;-67
2022/02/13 10:00:50;;;;;;;1.63;1.42;;;18.70;48.10;;;;;;5050894;28;20215;-65
2022/02/13 10:03:17;;;;;;;4.15;1.73;;;18.70;48.20;;;;;;5051408;28;20175;-67
2022/02/13 10:05:43;;;;;;;1.75;1.52;;;18.70;48.30;;;;;;5058446;28;20222;-67
2022/02/13 10:08:08;;;;;;;1.80;1.67;;;18.70;48.10;;;;;;5063211;28;20198;-68
2022/02/13 10:10:34;;;;;;;2.70;1.90;;;18.70;48.20;;;;;;5060888;28;20187;-67
2022/02/13 10:12:59;;;;;;;2.15;1.48;;;18.70;48.30;;;;;;5061494;28;20171;-67
2022/02/13 10:15:30;;;;;;;1.40;1.30;;;18.60;48.30;;;;;;5061745;28;20183;-66
2022/02/13 10:18:00;;;;;;;1.90;1.70;;;18.60;48.20;;;;;;5062045;28;20293;-67
2022/02/13 10:20:31;;;;;;;1.70;1.45;;;18.60;48.30;;;;;;5060118;28;20535;-66
2022/02/13 10:23:03;;;;;;;1.95;1.42;;;18.60;48.40;;;;;;5062521;28;20170;-66
2022/02/13 10:25:28;;;;;;;1.58;1.42;;;18.60;48.60;;;;;;5062052;28;20207;-66
2022/02/13 10:27:53;;;;;;;2.60;1.95;;;18.60;48.70;;;;;;5059696;28;20179;-67
2022/02/13 10:30:39;;;;;;;2.00;1.55;;;18.50;48.60;;;;;;5060672;28;20166;-68
2022/02/13 10:33:20;;;;;;;1.73;1.63;;;18.50;48.60;;;;;;5059919;28;20187;-68
2022/02/13 10:36:05;;;;;;;1.90;1.70;;;18.50;48.60;;;;;;5060243;28;20605;-67
2022/02/13 10:38:38;;;;;;;2.40;1.88;;;18.50;48.70;;;;;;5062144;28;20181;-65
2022/02/13 10:41:21;;;;;;;1.38;1.27;;;18.40;48.90;;;;;;5050326;28;20179;-64
2022/02/13 10:43:59;;;;;;;2.00;1.80;;;18.40;48.80;;;;;;5051358;28;20254;-64
2022/02/13 10:46:30;;;;;;;2.85;1.40;;;18.40;48.90;;;;;;5051206;28;20199;-64
2022/02/13 10:48:55;;;;;;;1.98;1.55;;;18.30;48.90;;;;;;5050322;28;20218;-65
2022/02/13 10:51:21;;;;;;;2.10;1.90;;;18.40;48.90;;;;;;5050967;28;20242;-64
2022/02/13 10:53:47;;;;;;;2.00;1.50;;;18.40;48.90;;;;;;5063974;28;20233;-64
2022/02/13 10:56:13;;;;;;;1.85;1.40;;;18.30;48.70;;;;;;5073413;28;20269;-64
2022/02/13 10:58:38;;;;;;;1.63;1.52;;;18.30;48.80;;;;;;5074596;28;20171;-64
2022/02/13 11:01:04;;;;;;;1.55;1.40;;;18.30;48.90;;;;;;5074564;28;20190;-64
2022/02/13 11:03:34;;;;;;;1.60;1.50;;;18.30;48.80;;;;;;5073796;28;20167;-64
2022/02/13 11:06:01;;;;;;;1.60;1.42;;;18.30;49.00;;;;;;5074560;28;20194;-65
2022/02/13 11:08:28;;;;;;;3.83;1.83;;;18.20;49.00;;;;;;5074944;28;20295;-65
2022/02/13 11:10:55;;;;;;;1.83;1.40;;;18.20;49.00;;;;;;5055974;28;20605;-64
2022/02/13 11:13:29;;;;;;;2.30;1.70;;;18.20;48.80;;;;;;5057066;28;20178;-63
2022/02/13 11:15:55;;;;;;;1.40;1.30;;;18.20;48.80;;;;;;5074135;28;20178;-63
2022/02/13 11:18:31;;;;;;;1.92;1.33;;;18.20;48.80;;;;;;5055974;28;20222;-63
2022/02/13 11:20:57;;;;;;;1.42;1.33;;;18.20;48.80;;;;;;5074192;28;20267;-63
2022/02/13 11:23:26;;;;;;;2.33;1.60;;;18.20;48.80;;;;;;5073666;28;20264;-64
2022/02/13 11:25:56;;;;;;;2.40;1.73;;;18.30;48.80;;;;;;5074423;28;20214;-64
2022/02/13 11:28:45;;;;;;;1.52;1.42;;;18.20;48.70;;;;;;5074524;28;20552;-64
2022/02/13 11:31:39;;;;;;;2.25;1.50;;;18.20;48.80;;;;;;5073131;28;20539;-66
2022/02/13 11:34:09;;;;;;;1.67;1.45;;;18.20;48.80;;;;;;5074156;28;20178;-65
2022/02/13 11:36:53;;;;;;;1.73;1.60;;;18.10;48.90;;;;;;5056578;28;20194;-65
2022/02/13 11:39:31;;;;;;;5.03;1.92;;;18.10;49.20;;;;;;5067743;28;20577;-65
2022/02/13 11:42:03;;;;;;;4.43;2.15;;;18.10;49.40;;;;;;5063640;28;20217;-66
2022/02/13 11:44:37;;;;;;;3.75;1.90;;;18.10;49.40;;;;;;5062100;28;20353;-67
2022/02/13 11:47:04;;;;;;;3.38;1.65;;;18.10;49.40;;;;;;5062457;28;20583;-65
2022/02/13 11:49:29;;;;;;;2.42;1.75;;;18.20;49.50;;;;;;5062681;28;20550;-64
2022/02/13 11:52:00;;;;;;;3.53;1.75;;;18.10;49.30;;;;;;5067684;28;20589;-65
2022/02/13 11:54:37;;;;;;;3.00;2.00;;;18.20;49.50;;;;;;5074104;28;20603;-65
2022/02/13 11:57:07;;;;;;;2.88;1.65;;;18.20;49.50;;;;;;5073623;28;20476;-66
2022/02/13 11:59:52;;;;;;;2.33;1.80;;;18.20;49.40;;;;;;5073004;28;20576;-66
2022/02/13 12:02:41;;;;;;;4.55;1.75;;;18.20;49.40;;;;;;5074131;28;20707;-66
2022/02/13 12:05:07;;;;;;;2.58;1.90;;;18.20;49.50;;;;;;5060290;28;20222;-66
2022/02/13 12:07:45;;;;;;;3.85;2.08;;;18.20;49.50;;;;;;5073190;28;20171;-66
2022/02/13 12:10:20;;;;;;;1.98;1.75;;;18.20;49.50;;;;;;5073586;28;20174;-66
2022/02/13 12:12:46;;;;;;;3.47;1.95;;;18.20;49.60;;;;;;5056531;28;20174;-65
2022/02/13 12:15:15;;;;;;;3.17;1.50;;;18.20;49.50;;;;;;5073802;28;20174;-64
2022/02/13 12:17:40;;;;;;;2.80;1.70;;;18.20;49.50;;;;;;5073862;28;20167;-64
2022/02/13 12:20:08;;;;;;;3.30;1.83;;;18.20;49.50;;;;;;5072675;28;20269;-64
2022/02/13 12:22:36;;;;;;;2.08;1.75;;;18.30;49.60;;;;;;5073860;28;20192;-64
2022/02/13 12:25:06;;;;;;;3.47;2.03;;;18.30;49.50;;;;;;5073193;28;20238;-65
2022/02/13 12:27:32;;;;;;;2.17;1.77;;;18.30;49.60;;;;;;5072967;28;20204;-65
2022/02/13 12:29:59;;;;;;;2.10;1.60;;;18.20;49.70;;;;;;5073400;28;20485;-66
2022/02/13 12:32:32;;;;;;;3.10;1.80;;;18.20;49.70;;;;;;5073351;28;20179;-67
2022/02/13 12:34:59;;;;;;;2.30;1.60;;;18.30;49.80;;;;;;5072218;28;20184;-69
2022/02/13 12:37:43;;;;;;;4.47;2.05;;;18.20;49.80;;;;;;5070963;28;20206;-65
2022/02/13 12:40:09;;;;;;;1.65;1.55;;;18.20;49.90;;;;;;5052677;28;20171;-64
2022/02/13 12:42:35;;;;;;;2.72;1.70;;;18.20;49.90;;;;;;5052221;28;20175;-64
2022/02/13 12:45:08;;;;;;;2.33;1.67;;;18.10;49.90;;;;;;5052397;28;20630;-64